• Join FlightAware (Why Join?)
  • Login
  • US Flag 
08:21AM EDT


 

Airport Tracker/Info


-or-


 

Live Flight TrackerFlight Track Log ✈ JTL868 ✈ 09-May-2013 ✈ KISP - KFOK

Flight Track Log - Related Links

Times and Time Zones

All times are in EDT time to prevent confusion due to time zone crossing. See the JTL868 flight status page for this flight to view local times or setup timezone preferences in your user account.

Time Position Orientation Groundspeed Altitude Reporting Facility
EDT Latitude Longitude Course Direction KTS MPH feet Rate Location/Type
05:07PM 40.7500 -73.1333 108° East 219 252 2,800  Level New York TRACON
05:08PM 40.7333 -73.0667 108° East 271 312 3,100 60 Climbing New York TRACON
05:09PM 40.7500 -72.9667 78° East 274 315 3,000 -60 Descending New York TRACON
05:10PM 40.7667 -72.8667 78° East 274 315 3,000  Level New York TRACON
05:11PM 40.7833 -72.7667 78° East 275 316 3,000  Level New York TRACON
05:12PM 40.7833 -72.6667 90° East 278 320 3,000  Level New York TRACON
05:13PM 40.8167 -72.5667 66° East 277 319 3,000  Level New York TRACON
05:14PM 40.8333 -72.4667 78° East 280 322 3,000  Level New York TRACON
05:15PM 40.8667 -72.4000 57° Northeast 236 272 3,000  Level New York TRACON
05:16PM 40.9167 -72.4000 360° North 207 238 3,000  Level New York TRACON
05:17PM 40.9667 -72.4167 346° North 204 235 3,000  Level New York TRACON
05:18PM 40.9667 -72.4833 270° West 167 192 3,000  Level New York TRACON
05:19PM 40.9333 -72.5333 229° Southwest 153 176 3,000 -360 Level New York TRACON
05:20PM 40.9667 -72.5667 323° Northwest 174 200 2,400 -540 Descending New York TRACON
05:21PM 41.0000 -72.5500 21° North 188 216 2,000 -240 Descending New York TRACON
05:22PM 40.9667 -72.5167 143° Southeast 191 220 2,000  Level New York TRACON
05:23PM 40.9167 -72.5333 194° South 178 205 2,000 -360 Level New York TRACON
05:24PM 40.9000 -72.5667 237° Southwest 119 137 1,300 -720 Descending New York TRACON
05:25PM 40.8667 -72.6000 217° Southwest 120 138 600 -720 Descending New York TRACON
05:27PM 40.8333 -72.6167 246° West  Level FlightAware Approximate
05:34PM 40.8437 -72.6318 246° West  Level Estimated
05:35PM 40.8437 -72.6318 246° West  Level Estimated
05:36PM 40.8437 -72.6318 246° West  Level Estimated